Fort Ritchie, Maryland
Current Conditions -  °F | °C
As of 12:53 AM on Sunday 26 Oct 2014 (Local Time) from KHGR Reporting Station
Scattered Clouds Scattered Clouds  
Wind Chill: 65°   Ceiling: Unl
Heat Index: 65°   Visibility: 10mi
Dew Point: 44°   Wind: 21mph
Humidity: 47%   Direction: 290°WNW
Pressure: 29.68"   Gusts: 32mph
Location:  39.6957°N, 77.5032°W
Report Text: KHGR 260453Z AUTO 29018G28KT 10SM SCT060 18/07 A2968 RMK AO2 PK WND 29028/0450 SLP055 T01830067 402220072
Loading
Personal Weather Stations






























Interactive Weather Map New forecast layout! Learn more

10-Day Weather Forecast

Advertisements
Track Severe Weather on mobile